Time;durP1;ratioP1;P1;durP2;ratioP2;P2;SDS_P1;SDS_P2;PMS_P1;PMS_P2;Temp;Humidity;BMP_temperature;BMP_pressure;BME280_temperature;BME280_humidity;BME280_pressure;Samples;Min_cycle;Max_cycle;Signal;HPM_P1;HPM_P2
2022/09/07 00:03:57;;;;;;;;;;;23.50;46.50;;;;;;8330101;28;19921;-45
2022/09/07 00:07:58;;;;;;;;;;;23.50;46.50;;;;;;8329785;28;19921;-46
2022/09/07 00:11:58;;;;;;;;;;;23.50;46.50;;;;;;8329324;28;19917;-45
2022/09/07 00:16:02;;;;;;;;;;;23.50;46.60;;;;;;8329696;28;19921;-45
2022/09/07 00:20:04;;;;;;;;;;;23.50;46.50;;;;;;8329648;28;19917;-44
2022/09/07 00:24:04;;;;;;;;;;;23.50;46.50;;;;;;8333206;28;19920;-45
2022/09/07 00:28:06;;;;;;;;;;;23.50;46.50;;;;;;8335903;28;19917;-45
2022/09/07 00:32:06;;;;;;;;;;;23.50;46.50;;;;;;8335566;28;20423;-44
2022/09/07 00:36:06;;;;;;;;;;;23.50;46.50;;;;;;8334939;28;19929;-45
2022/09/07 00:40:07;;;;;;;;;;;23.50;46.50;;;;;;8335353;28;19949;-45
2022/09/07 00:44:26;;;;;;;;;;;23.50;46.50;;;;;;8335451;28;19917;-48
2022/09/07 00:48:39;;;;;;;;;;;23.50;46.60;;;;;;8334896;28;19955;-46
2022/09/07 00:52:40;;;;;;;;;;;23.50;46.50;;;;;;8334990;28;20008;-45
2022/09/07 00:56:42;;;;;;;;;;;23.50;46.60;;;;;;8334411;28;19933;-45
2022/09/07 01:00:44;;;;;;;;;;;23.50;46.60;;;;;;8335114;28;19917;-45
2022/09/07 01:04:46;;;;;;;;;;;23.40;46.50;;;;;;8334589;28;19917;-46
2022/09/07 01:08:48;;;;;;;;;;;23.50;46.50;;;;;;8333561;28;19921;-46
2022/09/07 01:12:49;;;;;;;;;;;23.40;46.60;;;;;;8334677;28;19929;-46
2022/09/07 01:17:02;;;;;;;;;;;23.40;46.50;;;;;;8334282;28;19921;-45
2022/09/07 01:21:13;;;;;;;;;;;23.40;46.50;;;;;;8334233;28;19921;-46
2022/09/07 01:25:23;;;;;;;;;;;23.40;46.50;;;;;;8334067;28;19924;-45
2022/09/07 01:29:50;;;;;;;;;;;23.40;46.50;;;;;;8333590;28;20004;-45
2022/09/07 01:34:02;;;;;;;;;;;23.40;46.60;;;;;;8333837;28;19917;-46
2022/09/07 01:38:16;;;;;;;;;;;23.40;46.50;;;;;;8333543;28;20390;-45
2022/09/07 01:42:18;;;;;;;;;;;23.40;46.60;;;;;;8333104;28;19917;-46
2022/09/07 01:46:26;;;;;;;;;;;23.40;46.60;;;;;;8333609;28;19913;-45
2022/09/07 01:50:45;;;;;;;;;;;23.40;46.60;;;;;;8332792;28;19944;-47
2022/09/07 01:54:50;;;;;;;;;;;23.40;46.60;;;;;;8333242;28;19913;-46
2022/09/07 01:58:53;;;;;;;;;;;23.40;46.60;;;;;;8332997;28;19973;-46
2022/09/07 02:03:06;;;;;;;;;;;23.40;46.70;;;;;;8332280;28;19952;-46
2022/09/07 02:07:16;;;;;;;;;;;23.40;46.60;;;;;;8332618;28;19917;-46
2022/09/07 02:11:20;;;;;;;;;;;23.30;46.60;;;;;;8332185;28;19913;-47
2022/09/07 02:15:22;;;;;;;;;;;23.30;46.60;;;;;;8332257;28;19932;-45
2022/09/07 02:19:25;;;;;;;;;;;23.30;46.60;;;;;;8332714;28;20395;-46
2022/09/07 02:23:31;;;;;;;;;;;23.30;46.60;;;;;;8331674;28;19966;-45
2022/09/07 02:27:34;;;;;;;;;;;23.30;46.60;;;;;;8332075;28;19921;-46
2022/09/07 02:31:35;;;;;;;;;;;23.30;46.60;;;;;;8332038;28;19920;-45
2022/09/07 02:35:35;;;;;;;;;;;23.30;46.60;;;;;;8331385;28;19932;-46
2022/09/07 02:39:36;;;;;;;;;;;23.30;46.60;;;;;;8332177;28;19913;-47
2022/09/07 02:43:37;;;;;;;;;;;23.30;46.60;;;;;;8331449;28;19917;-46
2022/09/07 02:47:40;;;;;;;;;;;23.30;46.60;;;;;;8330502;28;20305;-46
2022/09/07 02:51:44;;;;;;;;;;;23.30;46.60;;;;;;8331506;28;19918;-46
2022/09/07 02:55:47;;;;;;;;;;;23.30;46.60;;;;;;8331281;28;19925;-46
2022/09/07 03:00:09;;;;;;;;;;;23.30;46.70;;;;;;8330842;28;19917;-47
2022/09/07 03:04:19;;;;;;;;;;;23.30;46.60;;;;;;8330870;28;19917;-46
2022/09/07 03:08:29;;;;;;;;;;;23.30;46.60;;;;;;8330307;28;19918;-45
2022/09/07 03:12:40;;;;;;;;;;;23.30;46.60;;;;;;8330744;28;19917;-46
2022/09/07 03:16:41;;;;;;;;;;;23.30;46.70;;;;;;8330599;28;19925;-46
2022/09/07 03:20:41;;;;;;;;;;;23.30;46.70;;;;;;8330235;28;19913;-45
2022/09/07 03:24:42;;;;;;;;;;;23.30;46.70;;;;;;8330786;28;19917;-46
2022/09/07 03:28:42;;;;;;;;;;;23.30;46.70;;;;;;8330375;28;19921;-46
2022/09/07 03:32:43;;;;;;;;;;;23.30;46.70;;;;;;8329923;28;19917;-46
2022/09/07 03:36:43;;;;;;;;;;;23.30;46.70;;;;;;8330180;28;19987;-46
2022/09/07 03:40:44;;;;;;;;;;;23.30;46.70;;;;;;8330266;28;19982;-44
2022/09/07 03:44:44;;;;;;;;;;;23.30;46.70;;;;;;8330058;28;20358;-46
2022/09/07 03:48:45;;;;;;;;;;;23.20;46.70;;;;;;8330093;28;19917;-46
2022/09/07 03:52:46;;;;;;;;;;;23.30;46.70;;;;;;8330136;28;19917;-46
2022/09/07 03:56:46;;;;;;;;;;;23.20;46.70;;;;;;8329810;28;20305;-44
2022/09/07 04:00:46;;;;;;;;;;;23.20;46.70;;;;;;8336866;28;19917;-43
2022/09/07 04:04:47;;;;;;;;;;;23.20;46.70;;;;;;8336391;28;19929;-44
2022/09/07 04:08:48;;;;;;;;;;;23.20;46.70;;;;;;8334757;28;19921;-45
2022/09/07 04:12:49;;;;;;;;;;;23.20;46.70;;;;;;8336176;28;20398;-45
2022/09/07 04:16:49;;;;;;;;;;;23.20;46.70;;;;;;8336120;28;19925;-44
2022/09/07 04:20:50;;;;;;;;;;;23.20;46.70;;;;;;8335893;28;19944;-45
2022/09/07 04:24:50;;;;;;;;;;;23.20;46.70;;;;;;8336162;28;19917;-46
2022/09/07 04:28:51;;;;;;;;;;;23.20;46.70;;;;;;8335685;28;19924;-46
2022/09/07 04:32:52;;;;;;;;;;;23.20;46.80;;;;;;8335223;28;19921;-44
2022/09/07 04:36:52;;;;;;;;;;;23.20;46.70;;;;;;8335356;28;19987;-48
2022/09/07 04:40:59;;;;;;;;;;;23.20;46.70;;;;;;8334353;28;19913;-44
2022/09/07 04:45:00;;;;;;;;;;;23.20;46.70;;;;;;8334800;28;19917;-44
2022/09/07 04:49:02;;;;;;;;;;;23.20;46.80;;;;;;8359037;28;19917;-43
2022/09/07 04:53:02;;;;;;;;;;;23.20;46.80;;;;;;8368124;28;19916;-44
2022/09/07 04:57:03;;;;;;;;;;;23.20;46.80;;;;;;8367720;28;19924;-43
2022/09/07 05:01:04;;;;;;;;;;;23.20;46.80;;;;;;8368019;28;19920;-45
2022/09/07 05:05:05;;;;;;;;;;;23.20;46.80;;;;;;8367737;28;19917;-44
2022/09/07 05:09:05;;;;;;;;;;;23.20;46.90;;;;;;8366518;28;19917;-45
2022/09/07 05:13:06;;;;;;;;;;;23.20;46.90;;;;;;8367556;28;19963;-44
2022/09/07 05:17:06;;;;;;;;;;;23.20;46.80;;;;;;8367138;28;19924;-45
2022/09/07 05:21:17;;;;;;;;;;;23.20;46.90;;;;;;8366933;28;19924;-44
2022/09/07 05:25:18;;;;;;;;;;;23.10;46.80;;;;;;8367010;28;19927;-44
2022/09/07 05:29:19;;;;;;;;;;;23.20;46.80;;;;;;8366342;28;20353;-44
2022/09/07 05:33:19;;;;;;;;;;;23.20;46.80;;;;;;8367077;28;19916;-45
2022/09/07 05:37:20;;;;;;;;;;;23.10;46.80;;;;;;8366635;28;19925;-44
2022/09/07 05:41:25;;;;;;;;;;;23.20;46.80;;;;;;8366409;28;19965;-44
2022/09/07 05:45:26;;;;;;;;;;;23.10;46.80;;;;;;8366399;28;19939;-44
2022/09/07 05:49:26;;;;;;;;;;;23.10;46.80;;;;;;8366469;28;19916;-44
2022/09/07 05:53:27;;;;;;;;;;;23.10;46.80;;;;;;8365601;28;19928;-44
2022/09/07 05:57:27;;;;;;;;;;;23.10;46.80;;;;;;8365841;28;19929;-44
2022/09/07 06:01:28;;;;;;;;;;;23.10;46.80;;;;;;8366289;28;19920;-44
2022/09/07 06:05:29;;;;;;;;;;;23.20;46.80;;;;;;8365272;28;20409;-45
2022/09/07 06:09:30;;;;;;;;;;;23.10;46.80;;;;;;8365568;28;20012;-45
2022/09/07 06:13:30;;;;;;;;;;;23.10;46.80;;;;;;8365521;28;19921;-44
2022/09/07 06:17:31;;;;;;;;;;;23.20;46.80;;;;;;8364954;28;19924;-44
2022/09/07 06:21:36;;;;;;;;;;;23.20;46.80;;;;;;8364915;28;19912;-46
2022/09/07 06:25:36;;;;;;;;;;;23.20;46.80;;;;;;8365204;28;19917;-44
2022/09/07 06:29:36;;;;;;;;;;;23.20;46.80;;;;;;8364534;28;19920;-44
2022/09/07 06:33:37;;;;;;;;;;;23.20;46.80;;;;;;8364857;28;20297;-45
2022/09/07 06:37:38;;;;;;;;;;;23.20;46.80;;;;;;8364776;28;20381;-45
2022/09/07 06:41:38;;;;;;;;;;;23.20;46.80;;;;;;8364402;28;19915;-45
2022/09/07 06:45:39;;;;;;;;;;;23.20;46.80;;;;;;8364519;28;19917;-44
2022/09/07 06:49:39;;;;;;;;;;;23.20;46.70;;;;;;8364338;28;20363;-44
2022/09/07 06:53:40;;;;;;;;;;;23.20;46.70;;;;;;8363759;28;19966;-44
2022/09/07 06:57:41;;;;;;;;;;;23.20;46.70;;;;;;8363957;28;19925;-45
2022/09/07 07:01:41;;;;;;;;;;;23.20;46.70;;;;;;8364208;28;19920;-43
2022/09/07 07:05:48;;;;;;;;;;;23.20;46.70;;;;;;8363498;28;19921;-45
2022/09/07 07:09:49;;;;;;;;;;;23.20;46.70;;;;;;8346653;28;19924;-44
2022/09/07 07:13:49;;;;;;;;;;;23.20;46.70;;;;;;8312645;28;20354;-44
2022/09/07 07:17:49;;;;;;;;;;;23.20;46.70;;;;;;8330110;28;20377;-45
2022/09/07 07:21:50;;;;;;;;;;;23.20;46.70;;;;;;8331003;28;19992;-43
2022/09/07 07:25:50;;;;;;;;;;;23.20;46.70;;;;;;8330458;28;19917;-46
2022/09/07 07:29:54;;;;;;;;;;;23.20;46.70;;;;;;8329895;28;19980;-46
2022/09/07 07:33:54;;;;;;;;;;;23.30;46.80;;;;;;8330361;28;20393;-46
2022/09/07 07:37:54;;;;;;;;;;;23.20;46.70;;;;;;8330023;28;19932;-47
2022/09/07 07:41:55;;;;;;;;;;;23.20;46.70;;;;;;8330071;28;20007;-46
2022/09/07 07:45:57;;;;;;;;;;;23.20;46.80;;;;;;8330463;28;19952;-46
2022/09/07 07:49:58;;;;;;;;;;;23.30;46.80;;;;;;8330011;28;19929;-45
2022/09/07 07:53:58;;;;;;;;;;;23.30;46.80;;;;;;8329548;28;19917;-44
2022/09/07 07:57:58;;;;;;;;;;;23.30;46.80;;;;;;8329915;28;20051;-47
2022/09/07 08:02:03;;;;;;;;;;;23.30;46.90;;;;;;8330109;28;19967;-46
2022/09/07 08:06:06;;;;;;;;;;;23.30;46.80;;;;;;8329533;28;20004;-46
2022/09/07 08:10:09;;;;;;;;;;;23.30;46.80;;;;;;8330049;28;20364;-45
2022/09/07 08:14:09;;;;;;;;;;;23.30;46.80;;;;;;8329888;28;19921;-46
2022/09/07 08:18:11;;;;;;;;;;;23.30;46.80;;;;;;8329085;28;19979;-46
2022/09/07 08:22:12;;;;;;;;;;;23.30;46.80;;;;;;8329988;28;19917;-44
2022/09/07 08:26:12;;;;;;;;;;;23.30;46.80;;;;;;8329147;28;19999;-43
2022/09/07 08:30:12;;;;;;;;;;;23.30;46.80;;;;;;8329346;28;19928;-45
2022/09/07 08:34:13;;;;;;;;;;;23.30;46.80;;;;;;8329569;28;19998;-47
2022/09/07 08:38:13;;;;;;;;;;;23.30;46.70;;;;;;8329051;28;19952;-45
2022/09/07 08:42:23;;;;;;;;;;;23.30;46.70;;;;;;8329769;28;20282;-46
2022/09/07 08:46:42;;;;;;;;;;;23.40;46.70;;;;;;8335001;28;20362;-43
2022/09/07 08:50:55;;;;;;;;;;;23.40;46.70;;;;;;8334797;28;19921;-45
2022/09/07 08:55:17;;;;;;;;;;;23.40;46.70;;;;;;8335222;28;19917;-45
2022/09/07 08:59:21;;;;;;;;;;;23.50;46.70;;;;;;8334533;28;20137;-44
2022/09/07 09:03:24;;;;;;;;;;;23.50;46.60;;;;;;8334670;28;19917;-44
2022/09/07 09:07:30;;;;;;;;;;;23.50;46.60;;;;;;8334836;28;19935;-45
2022/09/07 09:11:30;;;;;;;;;;;23.50;46.60;;;;;;8334276;28;19924;-45
2022/09/07 09:15:51;;;;;;;;;;;23.50;46.50;;;;;;8334158;28;19932;-46
2022/09/07 09:20:11;;;;;;;;;;;23.50;46.60;;;;;;8333031;28;20289;-46
2022/09/07 09:24:18;;;;;;;;;;;23.50;46.50;;;;;;8322741;28;19917;-46
2022/09/07 09:28:19;;;;;;;;;;;23.50;46.60;;;;;;8334158;28;20379;-46
2022/09/07 09:32:49;;;;;;;;;;;23.50;46.50;;;;;;8333692;28;19967;-45
2022/09/07 09:36:51;;;;;;;;;;;23.50;46.50;;;;;;8291958;28;19975;-45
2022/09/07 09:40:52;;;;;;;;;;;23.60;46.50;;;;;;8324002;28;19917;-44
2022/09/07 09:44:52;;;;;;;;;;;23.60;46.50;;;;;;8333073;28;19924;-44
2022/09/07 09:49:04;;;;;;;;;;;23.50;46.40;;;;;;8333331;28;19914;-45
2022/09/07 09:53:05;;;;;;;;;;;23.60;46.50;;;;;;8333397;28;20383;-44
2022/09/07 09:57:11;;;;;;;;;;;23.60;46.40;;;;;;8332556;28;20004;-43
2022/09/07 10:01:31;;;;;;;;;;;23.60;46.50;;;;;;8333045;28;19971;-45
2022/09/07 10:05:33;;;;;;;;;;;23.60;46.40;;;;;;8332462;28;20289;-45
2022/09/07 10:09:35;;;;;;;;;;;23.60;46.40;;;;;;8331513;28;19914;-44
2022/09/07 10:13:43;;;;;;;;;;;23.70;46.40;;;;;;8332727;28;20008;-44
2022/09/07 10:17:46;;;;;;;;;;;23.60;46.30;;;;;;8332247;28;20019;-44
2022/09/07 10:21:53;;;;;;;;;;;23.70;46.30;;;;;;8332303;28;19917;-44
2022/09/07 10:25:53;;;;;;;;;;;23.70;46.30;;;;;;8332387;28;19952;-44
2022/09/07 10:29:54;;;;;;;;;;;23.70;46.20;;;;;;8331585;28;19983;-46
2022/09/07 10:33:54;;;;;;;;;;;23.70;46.20;;;;;;8332153;28;19925;-45
2022/09/07 10:37:58;;;;;;;;;;;23.80;46.20;;;;;;8332120;28;19925;-45
2022/09/07 10:42:07;;;;;;;;;;;23.80;46.20;;;;;;8331275;28;19921;-45
2022/09/07 10:46:16;;;;;;;;;;;23.80;46.20;;;;;;8331872;28;19940;-44
2022/09/07 10:50:23;;;;;;;;;;;23.80;46.20;;;;;;8331154;28;19920;-44
2022/09/07 10:54:36;;;;;;;;;;;23.80;46.20;;;;;;8331638;28;20388;-44
2022/09/07 10:58:46;;;;;;;;;;;23.80;46.20;;;;;;8331320;28;19925;-44
2022/09/07 11:02:46;;;;;;;;;;;23.80;46.10;;;;;;8330678;28;19917;-44
2022/09/07 11:06:49;;;;;;;;;;;23.90;46.20;;;;;;8330705;28;19961;-43
2022/09/07 11:10:55;;;;;;;;;;;23.80;46.10;;;;;;8330855;28;19936;-45
2022/09/07 11:15:08;;;;;;;;;;;23.80;46.10;;;;;;8330431;28;19964;-44
2022/09/07 11:19:37;;;;;;;;;;;23.80;46.00;;;;;;8334436;28;19971;-45
2022/09/07 11:23:43;;;;;;;;;;;23.80;46.00;;;;;;8350185;28;19916;-44
2022/09/07 11:27:46;;;;;;;;;;;23.90;46.00;;;;;;8363697;28;19921;-44
2022/09/07 11:31:49;;;;;;;;;;;23.90;46.00;;;;;;8363413;28;20377;-43
2022/09/07 11:35:58;;;;;;;;;;;23.90;46.00;;;;;;8362784;28;19931;-45
2022/09/07 11:40:20;;;;;;;;;;;23.90;45.90;;;;;;8363539;28;19920;-43
2022/09/07 11:44:23;;;;;;;;;;;23.90;45.90;;;;;;8362808;28;19917;-43
2022/09/07 11:48:50;;;;;;;;;;;23.90;45.90;;;;;;8363736;28;19989;-44
2022/09/07 11:52:53;;;;;;;;;;;23.90;45.90;;;;;;8359976;28;19916;-45
2022/09/07 11:56:57;;;;;;;;;;;24.00;45.90;;;;;;8362511;28;20356;-46
2022/09/07 12:01:10;;;;;;;;;;;24.00;45.90;;;;;;8362960;28;19924;-43
2022/09/07 12:05:19;;;;;;;;;;;24.00;45.80;;;;;;8363034;28;19913;-43
2022/09/07 12:09:39;;;;;;;;;;;24.00;45.80;;;;;;8362748;28;20354;-43
2022/09/07 12:14:05;;;;;;;;;;;24.00;45.80;;;;;;8362936;28;19948;-44
2022/09/07 12:18:16;;;;;;;;;;;24.00;45.80;;;;;;8360925;28;19932;-46
2022/09/07 12:22:20;;;;;;;;;;;24.00;45.80;;;;;;8369083;28;19917;-43
2022/09/07 12:26:33;;;;;;;;;;;24.10;45.80;;;;;;8368576;28;19948;-42
2022/09/07 12:30:33;;;;;;;;;;;24.10;45.80;;;;;;8369049;28;19944;-43
2022/09/07 12:34:34;;;;;;;;;;;24.00;45.70;;;;;;8368810;28;20424;-44
2022/09/07 12:38:57;;;;;;;;;;;24.10;45.70;;;;;;8368255;28;19931;-44
2022/09/07 12:43:13;;;;;;;;;;;24.10;45.60;;;;;;8368347;28;19917;-43
2022/09/07 12:47:13;;;;;;;;;;;24.10;45.70;;;;;;8367732;28;19913;-44
2022/09/07 12:51:25;;;;;;;;;;;24.10;45.60;;;;;;8368296;28;19923;-45
2022/09/07 12:55:28;;;;;;;;;;;24.10;45.60;;;;;;8368735;28;19919;-43
2022/09/07 12:59:47;;;;;;;;;;;24.10;45.60;;;;;;8367575;28;19921;-43
2022/09/07 13:03:56;;;;;;;;;;;24.10;45.60;;;;;;8317383;28;19924;-43
2022/09/07 13:08:14;;;;;;;;;;;24.10;45.60;;;;;;8330760;28;19924;-44
2022/09/07 13:12:21;;;;;;;;;;;24.10;45.60;;;;;;8334271;28;19924;-43
2022/09/07 13:16:26;;;;;;;;;;;24.10;45.60;;;;;;8334360;28;20266;-42
2022/09/07 13:20:30;;;;;;;;;;;24.20;45.60;;;;;;8333909;28;19921;-43
2022/09/07 13:24:36;;;;;;;;;;;24.20;45.60;;;;;;8334520;28;19986;-43
2022/09/07 13:28:51;;;;;;;;;;;24.20;45.60;;;;;;8334142;28;19957;-45
2022/09/07 13:33:11;;;;;;;;;;;24.20;45.60;;;;;;8334420;28;19959;-43
2022/09/07 13:37:14;;;;;;;;;;;24.20;45.60;;;;;;8332085;28;19961;-43
2022/09/07 13:41:16;;;;;;;;;;;24.20;45.60;;;;;;8333184;28;20320;-42
2022/09/07 13:45:35;;;;;;;;;;;24.20;45.60;;;;;;8333529;28;19914;-43
2022/09/07 13:49:38;;;;;;;;;;;24.30;45.60;;;;;;8333615;28;19963;-42
2022/09/07 13:53:38;;;;;;;;;;;24.20;45.60;;;;;;8332718;28;19918;-43
2022/09/07 13:57:57;;;;;;;;;;;24.30;45.60;;;;;;8333333;28;19931;-43
2022/09/07 14:01:58;;;;;;;;;;;24.30;45.50;;;;;;8333056;28;19914;-44
2022/09/07 14:06:17;;;;;;;;;;;24.30;46.00;;;;;;8332437;28;19925;-42
2022/09/07 14:10:19;;;;;;;;;;;24.30;45.50;;;;;;8332675;28;20472;-43
2022/09/07 14:14:20;;;;;;;;;;;24.30;45.50;;;;;;8332360;28;19956;-43
2022/09/07 14:18:27;;;;;;;;;;;24.30;45.50;;;;;;8332617;28;19932;-43
2022/09/07 14:22:30;;;;;;;;;;;24.30;45.40;;;;;;8332479;28;20408;-44
2022/09/07 14:26:30;;;;;;;;;;;24.30;45.40;;;;;;8331824;28;20286;-43
2022/09/07 14:30:34;;;;;;;;;;;24.30;45.40;;;;;;8332253;28;19939;-46
2022/09/07 14:34:36;;;;;;;;;;;24.30;45.40;;;;;;8332206;28;19948;-43
2022/09/07 14:38:38;;;;;;;;;;;24.30;45.40;;;;;;8331329;28;20382;-43
2022/09/07 14:42:40;;;;;;;;;;;24.30;45.40;;;;;;8331511;28;19944;-44
2022/09/07 14:46:45;;;;;;;;;;;24.30;45.40;;;;;;8331629;28;19917;-43
2022/09/07 14:50:46;;;;;;;;;;;24.30;45.40;;;;;;8331117;28;19917;-44
2022/09/07 14:54:50;;;;;;;;;;;24.30;45.40;;;;;;8331834;28;19913;-44
2022/09/07 14:58:51;;;;;;;;;;;24.30;45.40;;;;;;8331060;28;19932;-43
2022/09/07 15:02:52;;;;;;;;;;;24.30;45.40;;;;;;8330568;28;20278;-43
2022/09/07 15:06:52;;;;;;;;;;;24.30;45.40;;;;;;8330856;28;19917;-43
2022/09/07 15:11:00;;;;;;;;;;;24.30;45.40;;;;;;8331012;28;19956;-44
2022/09/07 15:15:08;;;;;;;;;;;24.30;45.40;;;;;;8330683;28;19920;-43
2022/09/07 15:19:14;;;;;;;;;;;24.30;45.40;;;;;;8330829;28;19972;-44
2022/09/07 15:23:16;;;;;;;;;;;24.30;45.40;;;;;;8330219;28;19917;-42
2022/09/07 15:27:23;;;;;;;;;;;24.30;45.40;;;;;;8330386;28;20004;-43
2022/09/07 15:31:27;;;;;;;;;;;24.30;45.40;;;;;;8330749;28;20027;-43
2022/09/07 15:35:27;;;;;;;;;;;24.30;45.40;;;;;;8329957;28;20298;-42
2022/09/07 15:39:33;;;;;;;;;;;24.30;45.40;;;;;;8330615;28;19919;-43
2022/09/07 15:43:33;;;;;;;;;;;24.30;45.50;;;;;;8334903;28;19976;-44
2022/09/07 15:47:34;;;;;;;;;;;24.30;45.50;;;;;;8329817;28;19917;-43
2022/09/07 15:51:34;;;;;;;;;;;24.30;45.50;;;;;;8330315;28;19917;-44
2022/09/07 15:55:36;;;;;;;;;;;24.30;45.50;;;;;;8337094;28;19913;-42
2022/09/07 15:59:37;;;;;;;;;;;24.30;45.40;;;;;;8336654;28;19947;-44
2022/09/07 16:03:37;;;;;;;;;;;24.30;45.40;;;;;;8321500;28;20267;-42
2022/09/07 16:07:37;;;;;;;;;;;24.30;45.50;;;;;;8320427;28;19971;-43
2022/09/07 16:11:38;;;;;;;;;;;24.30;45.50;;;;;;8336098;28;19970;-44
2022/09/07 16:15:42;;;;;;;;;;;24.30;45.50;;;;;;8336812;28;19917;-42
2022/09/07 16:19:42;;;;;;;;;;;24.30;45.50;;;;;;8336591;28;19991;-44
2022/09/07 16:23:46;;;;;;;;;;;24.30;45.50;;;;;;8335659;28;19964;-43
2022/09/07 16:27:47;;;;;;;;;;;24.30;45.50;;;;;;8336254;28;20247;-43
2022/09/07 16:31:47;;;;;;;;;;;24.30;45.60;;;;;;8335998;28;19917;-44
2022/09/07 16:35:55;;;;;;;;;;;24.30;45.60;;;;;;8335398;28;20424;-43
2022/09/07 16:39:55;;;;;;;;;;;24.30;45.60;;;;;;8335737;28;19925;-43
2022/09/07 16:43:57;;;;;;;;;;;24.30;45.60;;;;;;8335397;28;19939;-44
2022/09/07 16:47:57;;;;;;;;;;;24.30;45.60;;;;;;8334855;28;19917;-45
2022/09/07 16:51:57;;;;;;;;;;;24.30;45.70;;;;;;8335221;28;20004;-46
2022/09/07 16:55:59;;;;;;;;;;;24.30;45.70;;;;;;8335057;28;20294;-44
2022/09/07 16:59:59;;;;;;;;;;;24.30;45.70;;;;;;8334704;28;19928;-45
2022/09/07 17:04:00;;;;;;;;;;;24.30;46.20;;;;;;8334516;28;19964;-47
2022/09/07 17:08:01;;;;;;;;;;;24.30;45.70;;;;;;8335156;28;19913;-45
2022/09/07 17:12:02;;;;;;;;;;;24.30;45.80;;;;;;8334256;28;19925;-44
2022/09/07 17:16:02;;;;;;;;;;;24.30;45.80;;;;;;8324996;28;19928;-46
2022/09/07 17:20:03;;;;;;;;;;;24.30;45.80;;;;;;8313017;28;19917;-45
2022/09/07 17:24:04;;;;;;;;;;;24.30;45.80;;;;;;8314821;28;20507;-43
2022/09/07 17:28:04;;;;;;;;;;;24.30;45.90;;;;;;8322692;28;19979;-43
2022/09/07 17:32:05;;;;;;;;;;;24.30;45.90;;;;;;8333859;28;19913;-44
2022/09/07 17:36:07;;;;;;;;;;;24.30;45.90;;;;;;8329873;28;19929;-43
2022/09/07 17:40:08;;;;;;;;;;;24.20;45.90;;;;;;8321366;28;19948;-43
2022/09/07 17:44:08;;;;;;;;;;;24.30;46.00;;;;;;8314433;28;20007;-44
2022/09/07 17:48:09;;;;;;;;;;;24.20;45.90;;;;;;8323076;28;19975;-43
2022/09/07 17:52:09;;;;;;;;;;;24.30;46.00;;;;;;8305600;28;19917;-44
2022/09/07 17:56:11;;;;;;;;;;;24.20;46.00;;;;;;8307376;28;20391;-43
2022/09/07 18:00:12;;;;;;;;;;;24.20;46.00;;;;;;8323962;28;19922;-44
2022/09/07 18:04:13;;;;;;;;;;;24.20;46.00;;;;;;8324171;28;20332;-44
2022/09/07 18:08:13;;;;;;;;;;;24.20;46.10;;;;;;8318709;28;19914;-43
2022/09/07 18:12:14;;;;;;;;;;;24.20;46.20;;;;;;8304156;28;19949;-46
2022/09/07 18:16:19;;;;;;;;;;;24.20;46.20;;;;;;8298814;28;19921;-43
2022/09/07 18:20:21;;;;;;;;;;;24.20;46.70;;;;;;8304302;28;19944;-44
2022/09/07 18:24:22;;;;;;;;;;;24.20;46.30;;;;;;8322825;28;19918;-43
2022/09/07 18:28:23;;;;;;;;;;;24.20;46.70;;;;;;8301981;28;19918;-44
2022/09/07 18:32:23;;;;;;;;;;;24.20;46.20;;;;;;8320952;28;20358;-43
2022/09/07 18:36:24;;;;;;;;;;;24.20;46.20;;;;;;8308855;28;19929;-45
2022/09/07 18:40:25;;;;;;;;;;;24.20;46.20;;;;;;8322782;28;20430;-44
2022/09/07 18:44:25;;;;;;;;;;;24.10;46.20;;;;;;8330048;28;20370;-44
2022/09/07 18:48:26;;;;;;;;;;;24.20;46.20;;;;;;8318069;28;19923;-44
2022/09/07 18:52:26;;;;;;;;;;;24.20;46.30;;;;;;8326980;28;20385;-45
2022/09/07 18:56:27;;;;;;;;;;;24.10;46.10;;;;;;8327622;28;20011;-45
2022/09/07 19:00:27;;;;;;;;;;;24.20;46.20;;;;;;8320344;28;19972;-44
2022/09/07 19:04:28;;;;;;;;;;;24.20;46.20;;;;;;8319998;28;19917;-46
2022/09/07 19:08:29;;;;;;;;;;;24.20;46.30;;;;;;8323152;28;19922;-45
2022/09/07 19:12:29;;;;;;;;;;;24.10;46.30;;;;;;8309627;28;19921;-43
2022/09/07 19:16:30;;;;;;;;;;;24.10;46.90;;;;;;8314458;28;19925;-44
2022/09/07 19:20:31;;;;;;;;;;;24.20;46.30;;;;;;8330456;28;19924;-44
2022/09/07 19:24:32;;;;;;;;;;;24.10;46.30;;;;;;8330549;28;19917;-45
2022/09/07 19:28:33;;;;;;;;;;;24.10;46.30;;;;;;8330368;28;20376;-44
2022/09/07 19:32:33;;;;;;;;;;;24.10;46.30;;;;;;8330052;28;19917;-44
2022/09/07 19:36:34;;;;;;;;;;;24.20;46.40;;;;;;8330773;28;20007;-44
2022/09/07 19:40:37;;;;;;;;;;;24.20;46.40;;;;;;8329913;28;21261;-44
2022/09/07 19:44:37;;;;;;;;;;;24.10;46.30;;;;;;8329849;28;19917;-44
2022/09/07 19:48:38;;;;;;;;;;;24.10;46.40;;;;;;8330520;28;19917;-44
2022/09/07 19:52:38;;;;;;;;;;;24.10;46.40;;;;;;8330197;28;19917;-48
2022/09/07 19:56:40;;;;;;;;;;;24.20;46.40;;;;;;8329950;28;19931;-45
2022/09/07 20:00:40;;;;;;;;;;;24.10;46.30;;;;;;8330060;28;19925;-45
2022/09/07 20:04:41;;;;;;;;;;;24.10;46.40;;;;;;8330096;28;19963;-47
2022/09/07 20:08:42;;;;;;;;;;;24.10;46.30;;;;;;8329609;28;19940;-45
2022/09/07 20:12:42;;;;;;;;;;;24.10;46.40;;;;;;8329887;28;19913;-46
2022/09/07 20:16:42;;;;;;;;;;;24.10;46.40;;;;;;8330047;28;19929;-45
2022/09/07 20:20:43;;;;;;;;;;;24.10;46.30;;;;;;8329403;28;19921;-48
2022/09/07 20:24:43;;;;;;;;;;;24.10;46.30;;;;;;8329639;28;20362;-45
2022/09/07 20:28:44;;;;;;;;;;;24.10;46.30;;;;;;8345418;28;19917;-43
2022/09/07 20:32:44;;;;;;;;;;;24.10;46.40;;;;;;8329258;28;19991;-44
2022/09/07 20:36:47;;;;;;;;;;;24.10;46.30;;;;;;8329702;28;20011;-45
2022/09/07 20:40:54;;;;;;;;;;;24.10;46.30;;;;;;8333105;28;20004;-45
2022/09/07 20:44:54;;;;;;;;;;;24.10;46.30;;;;;;8335083;28;19921;-45
2022/09/07 20:48:55;;;;;;;;;;;24.10;46.30;;;;;;8335310;28;19917;-45
2022/09/07 20:52:55;;;;;;;;;;;24.10;46.40;;;;;;8335488;28;19924;-45
2022/09/07 20:56:56;;;;;;;;;;;24.10;46.30;;;;;;8334863;28;19928;-45
2022/09/07 21:00:56;;;;;;;;;;;24.10;46.30;;;;;;8335059;28;20393;-45
2022/09/07 21:04:57;;;;;;;;;;;24.00;46.40;;;;;;8334868;28;19924;-45
2022/09/07 21:08:58;;;;;;;;;;;24.10;46.30;;;;;;8334388;28;19924;-45
2022/09/07 21:12:58;;;;;;;;;;;24.10;46.40;;;;;;8334812;28;20285;-46
2022/09/07 21:16:59;;;;;;;;;;;24.10;46.40;;;;;;8334752;28;19925;-46
2022/09/07 21:21:00;;;;;;;;;;;24.10;46.40;;;;;;8334078;28;19929;-44
2022/09/07 21:25:01;;;;;;;;;;;24.10;46.40;;;;;;8334374;28;19917;-45
2022/09/07 21:29:03;;;;;;;;;;;24.00;46.40;;;;;;8334225;28;19917;-44
2022/09/07 21:33:04;;;;;;;;;;;24.00;46.30;;;;;;8333605;28;19913;-45
2022/09/07 21:37:04;;;;;;;;;;;24.00;46.40;;;;;;8334048;28;19925;-44
2022/09/07 21:41:15;;;;;;;;;;;24.00;46.40;;;;;;8333825;28;19917;-45
2022/09/07 21:45:15;;;;;;;;;;;24.00;46.40;;;;;;8333339;28;19940;-45
2022/09/07 21:49:16;;;;;;;;;;;24.00;46.50;;;;;;8333510;28;20008;-44
2022/09/07 21:53:16;;;;;;;;;;;24.00;46.50;;;;;;8335508;28;19925;-45
2022/09/07 21:57:17;;;;;;;;;;;24.00;46.50;;;;;;8366280;28;19975;-45
2022/09/07 22:01:17;;;;;;;;;;;24.00;46.50;;;;;;8357145;28;19924;-45
2022/09/07 22:05:18;;;;;;;;;;;24.00;46.60;;;;;;8351452;28;19923;-44
2022/09/07 22:09:18;;;;;;;;;;;24.00;46.60;;;;;;8360855;28;19917;-43
2022/09/07 22:13:19;;;;;;;;;;;24.00;46.50;;;;;;8332689;28;19918;-45
2022/09/07 22:17:19;;;;;;;;;;;24.00;46.60;;;;;;8332377;28;20008;-45
2022/09/07 22:21:24;;;;;;;;;;;24.00;46.60;;;;;;8332686;28;19917;-45
2022/09/07 22:25:25;;;;;;;;;;;24.00;46.50;;;;;;8332462;28;19917;-44
2022/09/07 22:29:26;;;;;;;;;;;24.00;46.50;;;;;;8332057;28;19974;-45
2022/09/07 22:33:26;;;;;;;;;;;24.00;46.60;;;;;;8332223;28;19913;-45
2022/09/07 22:37:27;;;;;;;;;;;24.00;46.50;;;;;;8332103;28;19925;-44
2022/09/07 22:41:28;;;;;;;;;;;23.90;46.50;;;;;;8331350;28;20004;-45
2022/09/07 22:45:29;;;;;;;;;;;24.00;46.60;;;;;;8331734;28;19979;-45
2022/09/07 22:49:29;;;;;;;;;;;24.00;46.60;;;;;;8331616;28;19959;-45
2022/09/07 22:53:32;;;;;;;;;;;23.90;46.60;;;;;;8331163;28;19952;-45
2022/09/07 22:57:33;;;;;;;;;;;23.90;46.60;;;;;;8331645;28;19929;-45
2022/09/07 23:01:35;;;;;;;;;;;23.90;46.60;;;;;;8330903;28;19999;-46
2022/09/07 23:05:35;;;;;;;;;;;23.90;46.60;;;;;;8330774;28;20290;-45
2022/09/07 23:09:36;;;;;;;;;;;23.90;46.60;;;;;;8331198;28;19913;-44
2022/09/07 23:13:36;;;;;;;;;;;23.90;46.70;;;;;;8331016;28;20000;-45
2022/09/07 23:17:37;;;;;;;;;;;23.90;46.70;;;;;;8330679;28;20007;-45
2022/09/07 23:21:38;;;;;;;;;;;23.90;46.70;;;;;;8330844;28;19924;-45
2022/09/07 23:25:39;;;;;;;;;;;23.90;46.70;;;;;;8330912;28;19995;-46
2022/09/07 23:29:40;;;;;;;;;;;23.90;46.70;;;;;;8330200;28;19917;-45
2022/09/07 23:33:40;;;;;;;;;;;23.90;47.20;;;;;;8330531;28;19945;-45
2022/09/07 23:37:41;;;;;;;;;;;23.90;47.30;;;;;;8330764;28;19924;-47